KHRL

Valley International Airport

Harlingen, Texas, USA
METAR KHRL 191452Z 31012KT 3SM -RA BR OVC005 06/06 A3025 RMK AO2 RAB07 SLP244 P0002 60002 T00560056 53012
Observed Flight Rules
Jan-19 @ 14:52 UTC (40 minutes ago) Instrument Flight Rules
Wind Visibility Clouds Conditions
310° at 12 knots 3 miles
  • Overcast at 500' AGL
  • Light Rain
  • Mist
Temperatures Readings Precipitation
Current 6°C / 43°F
Dewpoint 6°C / 43°F
Humidity 100%
Altimeter 30.25" Hg
Pressure 1024.4 hPa
Elevation 10
Current Rain 0.02
METAR KHRL 191452Z 31012KT 3SM -RA BR OVC005 06/06 A3025 RMK AO2 RAB07 SLP244 P0002 60002 T00560056 53012
Observed Flight Rules
Jan-19 @ 14:52 UTC
(40 minutes ago)
IFR
Wind Visibility
310° at 12 knots 3 miles
Clouds
  • Overcast at 500' AGL
Conditions
  • Light Rain
  • Mist
Temperature Dewpoint
6°C / 43°F 6°C / 43°F
Humidity Altimeter Pressure
100% 30.25" Hg 1024.4 hPa
Current Rain
0.02